createdAt,value
2022-12-14T00:01:54.489Z,100750.34
2022-12-14T00:04:22.444Z,100745.78
2022-12-14T00:06:50.354Z,100750.75
2022-12-14T00:09:18.267Z,100755.00
2022-12-14T00:11:46.175Z,100760.38
2022-12-14T00:14:14.121Z,100763.78
2022-12-14T00:16:43.427Z,100765.50
2022-12-14T00:19:12.571Z,100757.53
2022-12-14T00:21:40.524Z,100756.53
2022-12-14T00:24:08.773Z,100756.50
2022-12-14T00:26:36.686Z,100760.75
2022-12-14T00:29:05.120Z,100756.75
2022-12-14T00:31:33.145Z,100753.41
2022-12-14T00:34:02.505Z,100749.88
2022-12-14T00:36:31.639Z,100747.38
2022-12-14T00:39:00.280Z,100743.03
2022-12-14T00:41:28.246Z,100748.13
2022-12-14T00:43:56.282Z,100749.81
2022-12-14T00:46:24.370Z,100759.19
2022-12-14T00:48:52.309Z,100756.81
2022-12-14T00:51:21.618Z,100768.63
2022-12-14T00:53:49.828Z,100763.47
2022-12-14T00:56:17.769Z,100762.66
2022-12-14T00:58:51.624Z,100768.63
2022-12-14T01:01:19.651Z,100767.91
2022-12-14T01:03:47.727Z,100761.50
2022-12-14T01:06:17.310Z,100760.97
2022-12-14T01:08:47.107Z,100755.81
2022-12-14T01:11:15.483Z,100757.44
2022-12-14T01:13:44.020Z,100752.38
2022-12-14T01:16:14.359Z,100746.94
2022-12-14T01:18:43.881Z,100750.47
2022-12-14T01:21:13.863Z,100742.66
2022-12-14T01:23:42.498Z,100734.19
2022-12-14T01:26:12.065Z,100732.50
2022-12-14T01:28:40.009Z,100726.69
2022-12-14T01:31:10.430Z,100735.91
2022-12-14T01:33:38.982Z,100722.53
2022-12-14T01:36:08.516Z,100731.97
2022-12-14T01:38:36.752Z,100731.09
2022-12-14T01:41:05.605Z,100738.06
2022-12-14T01:43:53.461Z,100737.94
2022-12-14T01:46:27.500Z,100742.84
2022-12-14T01:49:00.612Z,100745.34
2022-12-14T01:51:30.186Z,100754.59
2022-12-14T01:54:00.104Z,100757.13
2022-12-14T01:56:28.394Z,100748.06
2022-12-14T01:59:00.757Z,100756.50
2022-12-14T02:01:28.769Z,100755.59
2022-12-14T02:03:56.887Z,100757.28
2022-12-14T02:06:30.104Z,100754.06
2022-12-14T02:08:58.778Z,100732.97
2022-12-14T02:11:33.829Z,100750.69
2022-12-14T02:14:03.128Z,100756.59
2022-12-14T02:16:32.720Z,100769.38
2022-12-14T02:19:00.698Z,100772.91
2022-12-14T02:21:45.112Z,100760.03
2022-12-14T02:24:57.570Z,100742.19
2022-12-14T02:27:46.630Z,100739.66
2022-12-14T02:30:19.560Z,100739.78
2022-12-14T02:33:09.875Z,100735.53
2022-12-14T02:35:46.008Z,100738.78
2022-12-14T02:38:32.174Z,100736.06
2022-12-14T02:41:12.341Z,100732.56
2022-12-14T02:43:51.047Z,100721.53
2022-12-14T02:46:29.699Z,100726.81
2022-12-14T02:49:04.580Z,100739.50
2022-12-14T02:51:43.769Z,100736.03
2022-12-14T02:54:18.602Z,100736.06
2022-12-14T02:56:51.274Z,100734.31
2022-12-14T02:59:20.949Z,100724.97
2022-12-14T03:01:52.465Z,100724.19
2022-12-14T03:04:20.690Z,100731.75
2022-12-14T03:06:59.039Z,100724.25
2022-12-14T03:09:30.997Z,100734.34
2022-12-14T03:12:04.024Z,100739.44
2022-12-14T03:14:35.649Z,100726.69
2022-12-14T03:17:15.161Z,100717.31
2022-12-14T03:19:50.213Z,100726.56
2022-12-14T03:22:21.845Z,100714.06
2022-12-14T03:24:53.002Z,100719.09
2022-12-14T03:27:25.288Z,100717.50
2022-12-14T03:29:57.274Z,100706.28
2022-12-14T03:32:31.004Z,100713.19
2022-12-14T03:35:05.485Z,100714.75
2022-12-14T03:37:39.606Z,100713.78
2022-12-14T03:40:11.685Z,100713.88
2022-12-14T03:42:44.824Z,100702.69
2022-12-14T03:45:21.730Z,100699.97
2022-12-14T03:48:02.333Z,100705.72
2022-12-14T03:50:37.205Z,100713.31
2022-12-14T03:53:10.151Z,100705.69
2022-12-14T03:55:44.284Z,100719.16
2022-12-14T03:58:31.350Z,100713.19
2022-12-14T04:01:05.644Z,100705.50
2022-12-14T04:03:42.096Z,100699.69
2022-12-14T04:06:18.622Z,100703.28
2022-12-14T04:08:51.610Z,100698.16
2022-12-14T04:11:40.111Z,100700.06
2022-12-14T04:14:30.814Z,100701.47
2022-12-14T04:17:19.432Z,100711.59
2022-12-14T04:19:53.337Z,100705.56
2022-12-14T04:22:25.341Z,100702.97
2022-12-14T04:25:17.118Z,100692.63
2022-12-14T04:27:49.731Z,100692.00
2022-12-14T04:30:17.294Z,100683.25
2022-12-14T04:32:49.787Z,100682.34
2022-12-14T04:35:25.038Z,100672.34
2022-12-14T04:37:58.082Z,100681.66
2022-12-14T04:40:31.866Z,100678.16
2022-12-14T04:43:03.316Z,100666.44
2022-12-14T04:45:36.341Z,100677.25
2022-12-14T04:48:14.208Z,100680.81
2022-12-14T04:50:49.082Z,100681.84
2022-12-14T04:53:22.597Z,100675.56
2022-12-14T04:55:55.664Z,100677.16
2022-12-14T04:58:26.554Z,100677.06
2022-12-14T05:01:13.868Z,100681.34
2022-12-14T05:03:54.278Z,100680.69
2022-12-14T05:06:31.794Z,100674.75
2022-12-14T05:09:19.137Z,100679.84
2022-12-14T05:11:54.090Z,100687.84
2022-12-14T05:14:29.785Z,100668.16
2022-12-14T05:17:02.286Z,100670.50
2022-12-14T05:19:33.079Z,100680.63
2022-12-14T05:22:07.338Z,100675.47
2022-12-14T05:24:35.585Z,100672.16
2022-12-14T05:27:03.544Z,100658.69
2022-12-14T05:29:31.499Z,100665.16
2022-12-14T05:31:59.592Z,100659.91
2022-12-14T05:34:27.565Z,100661.91
2022-12-14T05:36:55.756Z,100663.31
2022-12-14T05:39:25.084Z,100666.91
2022-12-14T05:41:53.458Z,100680.28
2022-12-14T05:44:21.577Z,100689.91
2022-12-14T05:46:49.497Z,100707.13
2022-12-14T05:49:17.484Z,100691.81
2022-12-14T05:51:45.397Z,100699.69
2022-12-14T05:54:13.459Z,100704.69
2022-12-14T05:56:42.752Z,100711.53
2022-12-14T05:59:15.489Z,100701.28
2022-12-14T06:01:44.228Z,100701.28
2022-12-14T06:04:12.697Z,100706.41
2022-12-14T06:06:40.670Z,100711.34
2022-12-14T06:09:10.155Z,100716.41
2022-12-14T06:11:39.367Z,100714.78
2022-12-14T06:14:09.855Z,100703.53
2022-12-14T06:16:42.612Z,100698.50
2022-12-14T06:19:11.668Z,100701.75
2022-12-14T06:21:42.502Z,100704.25
2022-12-14T06:24:13.191Z,100702.78
2022-12-14T06:26:42.060Z,100701.84
2022-12-14T06:29:15.708Z,100705.91
2022-12-14T06:31:43.642Z,100702.53
2022-12-14T06:34:12.395Z,100702.78
2022-12-14T06:36:42.789Z,100706.19
2022-12-14T06:39:13.539Z,100703.47
2022-12-14T06:41:41.628Z,100696.66
2022-12-14T06:44:14.712Z,100701.66
2022-12-14T06:46:43.242Z,100702.28
2022-12-14T06:49:14.905Z,100700.56
2022-12-14T06:51:43.240Z,100699.03
2022-12-14T06:54:12.234Z,100682.03
2022-12-14T06:56:40.784Z,100681.22
2022-12-14T06:59:09.745Z,100676.63
2022-12-14T07:01:40.430Z,100668.97
2022-12-14T07:04:09.098Z,100668.06
2022-12-14T07:06:40.730Z,100683.09
2022-12-14T07:09:10.162Z,100679.81
2022-12-14T07:11:38.082Z,100682.25
2022-12-14T07:14:07.349Z,100680.50
2022-12-14T07:16:37.073Z,100672.03
2022-12-14T07:19:06.495Z,100685.41
2022-12-14T07:21:34.649Z,100681.88
2022-12-14T07:24:03.375Z,100680.34
2022-12-14T07:26:31.477Z,100683.84
2022-12-14T07:29:00.615Z,100694.63
2022-12-14T07:31:30.024Z,100709.25
2022-12-14T07:33:59.747Z,100707.00
2022-12-14T07:36:30.512Z,100710.28
2022-12-14T07:38:59.998Z,100721.78
2022-12-14T07:41:30.739Z,100729.88
2022-12-14T07:44:00.463Z,100731.91
2022-12-14T07:46:30.047Z,100733.59
2022-12-14T07:48:59.302Z,100732.47
2022-12-14T07:51:30.611Z,100726.38
2022-12-14T07:53:59.707Z,100719.31
2022-12-14T07:56:30.823Z,100731.31
2022-12-14T07:59:00.349Z,100725.06
2022-12-14T08:01:30.589Z,100709.81
2022-12-14T08:04:01.043Z,100721.63
2022-12-14T08:06:30.945Z,100723.97
2022-12-14T08:08:59.608Z,100721.09
2022-12-14T08:11:27.918Z,100725.53
2022-12-14T08:13:56.444Z,100730.38
2022-12-14T08:16:25.083Z,100732.50
2022-12-14T08:18:54.941Z,100720.22
2022-12-14T08:21:24.280Z,100717.00
2022-12-14T08:23:54.759Z,100731.66
2022-12-14T08:26:23.777Z,100725.75
2022-12-14T08:28:52.130Z,100722.97
2022-12-14T08:31:22.044Z,100712.59
2022-12-14T08:33:50.173Z,100714.06
2022-12-14T08:36:20.115Z,100709.16
2022-12-14T08:38:52.637Z,100702.41
2022-12-14T08:41:22.123Z,100704.88
2022-12-14T08:43:54.112Z,100700.50
2022-12-14T08:46:23.375Z,100699.28
2022-12-14T08:48:52.932Z,100708.56
2022-12-14T08:51:21.698Z,100711.25
2022-12-14T08:53:49.731Z,100716.28
2022-12-14T08:56:19.535Z,100714.44
2022-12-14T08:58:49.376Z,100704.72
2022-12-14T09:01:19.889Z,100713.94
2022-12-14T09:03:48.783Z,100711.53
2022-12-14T09:06:18.701Z,100711.97
2022-12-14T09:08:47.236Z,100707.28
2022-12-14T09:11:19.825Z,100696.06
2022-12-14T09:13:49.546Z,100700.75
2022-12-14T09:16:20.076Z,100695.78
2022-12-14T09:18:48.884Z,100691.16
2022-12-14T09:21:18.095Z,100675.38
2022-12-14T09:23:46.961Z,100655.53
2022-12-14T09:26:17.592Z,100672.19
2022-12-14T09:28:50.252Z,100669.59
2022-12-14T09:31:20.434Z,100667.31
2022-12-14T09:33:48.914Z,100669.44
2022-12-14T09:36:19.019Z,100672.03
2022-12-14T09:38:51.722Z,100677.59
2022-12-14T09:41:31.612Z,100673.09
2022-12-14T09:44:06.646Z,100663.56
2022-12-14T09:46:46.209Z,100668.66
2022-12-14T09:49:26.343Z,100654.41
2022-12-14T09:51:56.251Z,100664.06
2022-12-14T09:54:28.006Z,100668.47
2022-12-14T09:56:59.086Z,100653.88
2022-12-14T09:59:31.938Z,100643.06
2022-12-14T10:02:33.105Z,100646.63
2022-12-14T10:05:19.379Z,100644.69
2022-12-14T10:07:59.385Z,100650.44
2022-12-14T10:10:35.069Z,100646.63
2022-12-14T10:13:12.086Z,100649.53
2022-12-14T10:15:45.750Z,100650.09
2022-12-14T10:21:40.536Z,100649.34
2022-12-14T10:24:15.461Z,100645.69
2022-12-14T10:26:47.553Z,100646.41
2022-12-14T10:29:19.792Z,100649.81
2022-12-14T10:31:57.146Z,100640.38
2022-12-14T10:34:30.772Z,100635.19
2022-12-14T10:37:10.652Z,100642.22
2022-12-14T10:39:49.653Z,100638.63
2022-12-14T10:42:25.128Z,100613.97
2022-12-14T10:45:31.527Z,100604.78
2022-12-14T10:47:57.094Z,100612.06
2022-12-14T10:50:33.936Z,100595.50
2022-12-14T10:53:05.904Z,100589.91
2022-12-14T10:55:39.437Z,100591.41
2022-12-14T10:58:07.372Z,100582.16
2022-12-14T11:00:35.585Z,100576.88
2022-12-14T11:03:13.664Z,100573.13
2022-12-14T11:05:47.321Z,100579.72
2022-12-14T11:08:39.704Z,100579.31
2022-12-14T11:11:18.859Z,100572.13
2022-12-14T11:13:52.842Z,100570.25
2022-12-14T11:16:35.524Z,100550.78
2022-12-14T11:19:16.120Z,100558.78
2022-12-14T11:21:44.747Z,100562.03
2022-12-14T11:24:23.389Z,100559.19
2022-12-14T11:26:54.793Z,100564.47
2022-12-14T11:29:30.172Z,100567.09
2022-12-14T11:31:58.443Z,100570.84
2022-12-14T11:34:34.608Z,100562.75
2022-12-14T11:37:14.381Z,100564.91
2022-12-14T11:39:43.532Z,100548.75
2022-12-14T11:42:19.058Z,100532.66
2022-12-14T11:44:48.324Z,100528.66
2022-12-14T11:47:18.863Z,100526.13
2022-12-14T11:49:50.472Z,100497.97
2022-12-14T11:52:19.988Z,100518.47
2022-12-14T11:55:03.855Z,100520.19
2022-12-14T11:57:34.180Z,100519.25
2022-12-14T12:00:05.720Z,100515.41
2022-12-14T12:02:35.987Z,100505.88
2022-12-14T12:05:08.821Z,100521.88
2022-12-14T12:07:39.980Z,100533.22
2022-12-14T12:10:18.153Z,100520.56
2022-12-14T12:12:52.624Z,100512.94
2022-12-14T12:15:25.861Z,100511.97
2022-12-14T12:17:56.681Z,100514.66
2022-12-14T12:20:32.125Z,100521.13
2022-12-14T12:23:05.764Z,100525.56
2022-12-14T12:25:37.665Z,100513.50
2022-12-14T12:28:13.466Z,100517.97
2022-12-14T12:30:45.617Z,100466.28
2022-12-14T12:33:33.500Z,100518.94
2022-12-14T12:36:06.145Z,100515.28
2022-12-14T12:39:02.053Z,100516.16
2022-12-14T12:41:35.035Z,100510.56
2022-12-14T12:44:14.270Z,100509.81
2022-12-14T12:47:22.701Z,100518.97
2022-12-14T12:49:44.741Z,100515.06
2022-12-14T12:52:22.102Z,100517.81
2022-12-14T12:54:58.191Z,100506.13
2022-12-14T12:57:31.304Z,100503.44
2022-12-14T13:00:01.273Z,100506.81
2022-12-14T13:02:33.386Z,100520.25
2022-12-14T13:05:29.075Z,100527.63
2022-12-14T13:07:58.561Z,100539.13
2022-12-14T13:10:30.316Z,100515.31
2022-12-14T13:13:02.325Z,100503.63
2022-12-14T13:15:32.836Z,100511.91
2022-12-14T13:18:04.868Z,100510.75
2022-12-14T13:20:34.683Z,100512.78
2022-12-14T13:26:23.465Z,100515.81
2022-12-14T13:29:08.928Z,100513.78
2022-12-14T13:31:44.578Z,100507.06
2022-12-14T13:34:24.345Z,100505.56
2022-12-14T13:37:30.583Z,100519.88
2022-12-14T13:40:29.564Z,100510.88
2022-12-14T13:43:11.277Z,100505.44
2022-12-14T13:45:42.738Z,100507.28
2022-12-14T13:48:23.156Z,100507.97
2022-12-14T13:51:01.529Z,100506.78
2022-12-14T13:53:36.391Z,100500.94
2022-12-14T13:56:06.308Z,100501.41
2022-12-14T13:58:39.473Z,100500.72
2022-12-14T14:01:08.831Z,100492.34
2022-12-14T14:03:52.257Z,100489.84
2022-12-14T14:06:41.189Z,100487.91
2022-12-14T14:09:46.677Z,100484.22
2022-12-14T14:12:51.680Z,100485.63
2022-12-14T14:15:33.259Z,100464.50
2022-12-14T14:18:23.523Z,100495.56
2022-12-14T14:21:32.331Z,100475.88
2022-12-14T14:24:02.349Z,100474.59
2022-12-14T14:26:32.181Z,100473.19
2022-12-14T14:29:21.786Z,100472.75
2022-12-14T14:31:52.982Z,100475.91
2022-12-14T14:34:39.425Z,100477.78
2022-12-14T14:37:26.700Z,100474.13
2022-12-14T14:40:18.659Z,100467.34
2022-12-14T14:42:55.026Z,100463.81
2022-12-14T14:45:31.356Z,100461.34
2022-12-14T14:48:02.197Z,100464.47
2022-12-14T14:50:32.889Z,100453.13
2022-12-14T14:53:11.154Z,100457.44
2022-12-14T14:55:59.481Z,100447.03
2022-12-14T14:58:30.514Z,100442.72
2022-12-14T15:01:13.831Z,100439.34
2022-12-14T15:03:49.730Z,100443.31
2022-12-14T15:06:19.661Z,100437.69
2022-12-14T15:08:50.610Z,100438.63
2022-12-14T15:11:20.901Z,100441.84
2022-12-14T15:13:54.531Z,100430.44
2022-12-14T15:16:32.616Z,100426.59
2022-12-14T15:19:27.958Z,100410.63
2022-12-14T15:21:58.843Z,100411.47
2022-12-14T15:24:27.624Z,100405.47
2022-12-14T15:26:55.761Z,100397.75
2022-12-14T15:29:28.465Z,100383.34
2022-12-14T15:32:00.735Z,100404.25
2022-12-14T15:34:29.139Z,100393.16
2022-12-14T15:36:57.721Z,100379.81
2022-12-14T15:39:37.299Z,100388.78
2022-12-14T15:42:16.899Z,100400.41
2022-12-14T15:44:52.534Z,100401.84
2022-12-14T15:47:27.262Z,100384.22
2022-12-14T15:50:00.526Z,100390.78
2022-12-14T15:52:31.546Z,100377.00
2022-12-14T15:55:00.773Z,100368.00
2022-12-14T15:57:28.850Z,100367.47
2022-12-14T15:59:59.207Z,100348.56
2022-12-14T16:02:32.213Z,100349.94
2022-12-14T16:05:03.483Z,100353.25
2022-12-14T16:07:38.620Z,100355.88
2022-12-14T16:10:17.457Z,100356.19
2022-12-14T16:12:47.941Z,100358.31
2022-12-14T16:15:20.688Z,100354.91
2022-12-14T16:17:59.067Z,100364.97
2022-12-14T16:20:31.927Z,100365.53
2022-12-14T16:23:06.152Z,100348.56
2022-12-14T16:25:35.880Z,100361.50
2022-12-14T16:28:28.097Z,100353.94
2022-12-14T16:31:00.582Z,100353.75
2022-12-14T16:33:31.078Z,100366.59
2022-12-14T16:36:02.530Z,100375.41
2022-12-14T16:38:30.979Z,100375.28
2022-12-14T16:41:01.113Z,100369.28
2022-12-14T16:43:33.867Z,100359.94
2022-12-14T16:46:19.790Z,100347.94
2022-12-14T16:49:21.503Z,100354.84
2022-12-14T16:52:07.435Z,100357.84
2022-12-14T16:54:37.815Z,100355.09
2022-12-14T16:57:09.328Z,100360.59
2022-12-14T16:59:43.426Z,100351.59
2022-12-14T17:02:29.015Z,100358.25
2022-12-14T17:05:01.589Z,100373.16
2022-12-14T17:07:32.041Z,100373.78
2022-12-14T17:10:00.031Z,100365.28
2022-12-14T17:12:28.250Z,100365.09
2022-12-14T17:14:56.349Z,100363.41
2022-12-14T17:17:32.254Z,100376.28
2022-12-14T17:20:02.767Z,100371.06
2022-12-14T17:22:32.788Z,100374.44
2022-12-14T17:25:02.672Z,100368.31
2022-12-14T17:27:30.874Z,100372.56
2022-12-14T17:29:58.849Z,100373.47
2022-12-14T17:32:30.481Z,100379.59
2022-12-14T17:34:59.061Z,100384.47
2022-12-14T17:37:35.658Z,100386.97
2022-12-14T17:40:05.485Z,100387.75
2022-12-14T17:42:33.536Z,100387.88
2022-12-14T17:45:01.774Z,100394.78
2022-12-14T17:47:29.870Z,100388.72
2022-12-14T17:49:57.872Z,100379.97
2022-12-14T17:52:31.924Z,100368.78
2022-12-14T17:55:00.422Z,100370.56
2022-12-14T17:57:28.606Z,100366.19
2022-12-14T18:00:10.421Z,100371.34
2022-12-14T18:02:40.005Z,100367.94
2022-12-14T18:05:13.089Z,100370.44
2022-12-14T18:07:42.411Z,100334.22
2022-12-14T18:10:14.238Z,100362.84
2022-12-14T18:12:42.594Z,100355.94
2022-12-14T18:15:18.161Z,100339.38
2022-12-14T18:17:46.095Z,100344.28
2022-12-14T18:20:17.701Z,100348.16
2022-12-14T18:22:49.666Z,100354.00
2022-12-14T18:25:30.146Z,100351.34
2022-12-14T18:27:58.088Z,100347.03
2022-12-14T18:30:26.756Z,100338.88
2022-12-14T18:32:55.923Z,100337.84
2022-12-14T18:35:26.142Z,100325.53
2022-12-14T18:37:55.490Z,100324.91
2022-12-14T18:40:26.160Z,100327.41
2022-12-14T18:42:54.477Z,100320.22
2022-12-14T18:45:24.157Z,100317.81
2022-12-14T18:47:54.091Z,100314.00
2022-12-14T18:50:23.246Z,100318.91
2022-12-14T18:52:51.475Z,100318.13
2022-12-14T18:55:23.191Z,100319.38
2022-12-14T18:57:53.019Z,100317.88
2022-12-14T19:00:23.506Z,100318.91
2022-12-14T19:02:52.517Z,100312.47
2022-12-14T19:05:25.909Z,100309.13
2022-12-14T19:07:54.593Z,100299.97
2022-12-14T19:10:25.767Z,100297.03
2022-12-14T19:12:53.947Z,100279.63
2022-12-14T19:15:24.238Z,100278.16
2022-12-14T19:17:52.506Z,100268.81
2022-12-14T19:20:21.325Z,100269.72
2022-12-14T19:22:49.911Z,100251.63
2022-12-14T19:25:18.870Z,100262.34
2022-12-14T19:30:37.609Z,100251.75
2022-12-14T19:33:05.674Z,100248.44
2022-12-14T19:35:33.634Z,100235.56
2022-12-14T19:38:01.729Z,100223.06
2022-12-14T19:40:29.666Z,100217.66
2022-12-14T19:42:59.445Z,100209.22
2022-12-14T19:45:27.360Z,100207.47
2022-12-14T19:47:56.082Z,100200.66
2022-12-14T19:50:24.034Z,100200.38
2022-12-14T19:52:52.628Z,100198.06
2022-12-14T19:55:20.561Z,100191.25
2022-12-14T19:57:48.514Z,100189.78
2022-12-14T20:00:18.265Z,100180.47
2022-12-14T20:02:46.345Z,100171.88
2022-12-14T20:05:18.134Z,100168.91
2022-12-14T20:07:46.047Z,100162.47
2022-12-14T20:10:14.005Z,100158.16
2022-12-14T20:12:41.952Z,100168.34
2022-12-14T20:15:10.222Z,100164.56
2022-12-14T20:17:39.528Z,100166.88
2022-12-14T20:20:08.568Z,100169.19
2022-12-14T20:22:36.811Z,100168.75
2022-12-14T20:25:04.979Z,100169.31
2022-12-14T20:27:38.845Z,100164.88
2022-12-14T20:30:10.098Z,100160.25
2022-12-14T20:32:41.198Z,100162.06
2022-12-14T20:35:10.997Z,100165.28
2022-12-14T20:37:38.984Z,100170.75
2022-12-14T20:40:08.256Z,100166.97
2022-12-14T20:42:36.224Z,100164.88
2022-12-14T20:45:07.248Z,100161.16
2022-12-14T20:47:35.775Z,100162.16
2022-12-14T20:50:05.808Z,100166.78
2022-12-14T20:52:33.737Z,100164.56
2022-12-14T20:55:01.662Z,100161.56
2022-12-14T20:57:33.144Z,100155.38
2022-12-14T21:00:01.195Z,100152.50
2022-12-14T21:02:29.343Z,100155.25
2022-12-14T21:04:57.604Z,100142.50
2022-12-14T21:07:27.317Z,100141.03
2022-12-14T21:09:55.220Z,100136.28
2022-12-14T21:12:22.168Z,100136.13
2022-12-14T21:14:53.304Z,100126.72
2022-12-14T21:17:22.517Z,100130.34
2022-12-14T21:19:50.490Z,100121.41
2022-12-14T21:22:20.274Z,100121.97
2022-12-14T21:25:06.655Z,100118.47
2022-12-14T21:27:38.412Z,100121.19
2022-12-14T21:30:08.644Z,100108.16
2022-12-14T21:32:37.753Z,100095.88
2022-12-14T21:35:06.632Z,100087.44
2022-12-14T21:37:34.643Z,100095.72
2022-12-14T21:40:04.037Z,100085.50
2022-12-14T21:42:30.990Z,100080.03
2022-12-14T21:44:58.921Z,100080.13
2022-12-14T21:47:28.947Z,100079.84
2022-12-14T21:49:57.211Z,100067.78
2022-12-14T21:52:26.952Z,100062.53
2022-12-14T21:54:55.105Z,100065.13
2022-12-14T21:57:42.972Z,100056.50
2022-12-14T22:00:17.868Z,100039.97
2022-12-14T22:02:45.987Z,100024.22
2022-12-14T22:05:14.274Z,100028.63
2022-12-14T22:07:42.291Z,100029.59
2022-12-14T22:10:10.293Z,100017.28
2022-12-14T22:12:39.585Z,100017.97
2022-12-14T22:15:08.525Z,100021.53
2022-12-14T22:17:38.796Z,100010.97
2022-12-14T22:20:07.713Z,99995.03
2022-12-14T22:22:35.672Z,99997.09
2022-12-14T22:25:03.907Z,99990.19
2022-12-14T22:27:31.853Z,99988.53
2022-12-14T22:30:01.143Z,99988.78
2022-12-14T22:32:29.045Z,99985.38
2022-12-14T22:34:56.961Z,99971.53
2022-12-14T22:37:24.891Z,99944.03
2022-12-14T22:39:52.829Z,99929.47
2022-12-14T22:42:20.760Z,99948.00
2022-12-14T22:44:49.751Z,99961.03
2022-12-14T22:47:19.080Z,99962.09
2022-12-14T22:49:47.205Z,99973.19
2022-12-14T22:52:17.514Z,99972.25
2022-12-14T22:54:49.898Z,99959.84
2022-12-14T22:57:20.300Z,99938.31
2022-12-14T22:59:53.953Z,99923.75
2022-12-14T23:02:24.209Z,99933.41
2022-12-14T23:04:52.280Z,99929.03
2022-12-14T23:07:20.188Z,99922.53
2022-12-14T23:10:05.640Z,99937.28
2022-12-14T23:12:51.052Z,99931.53
2022-12-14T23:15:36.179Z,99920.91
2022-12-14T23:18:25.303Z,99927.69
2022-12-14T23:21:10.559Z,99919.63
2022-12-14T23:23:57.064Z,99909.81
2022-12-14T23:26:42.579Z,99910.47
2022-12-14T23:29:28.091Z,99905.88
2022-12-14T23:32:13.552Z,99897.34
2022-12-14T23:35:00.443Z,99887.78
2022-12-14T23:37:45.539Z,99883.84
2022-12-14T23:40:31.153Z,99875.03
2022-12-14T23:43:16.598Z,99869.41
2022-12-14T23:46:02.150Z,99869.59
2022-12-14T23:48:47.557Z,99870.06
2022-12-14T23:51:34.383Z,99869.25
2022-12-14T23:54:19.989Z,99884.13
2022-12-14T23:57:05.320Z,99884.88
2022-12-14T23:59:50.863Z,99883.31
